sensor_id;sensor_type;location;lat;lon;timestamp;P1;durP1;ratioP1;P2;durP2;ratioP2
71867;SDS011;59738;48.324;14.230;2023-02-12T00:00:35;26.20;;;13.07;;
71867;SDS011;59738;48.324;14.230;2023-02-12T00:03:03;25.63;;;12.77;;
71867;SDS011;59738;48.324;14.230;2023-02-12T00:05:32;22.77;;;11.50;;
71867;SDS011;59738;48.324;14.230;2023-02-12T00:08:00;21.93;;;11.17;;
71867;SDS011;59738;48.324;14.230;2023-02-12T00:10:28;28.50;;;12.63;;
71867;SDS011;59738;48.324;14.230;2023-02-12T00:12:55;26.15;;;13.00;;
71867;SDS011;59738;48.324;14.230;2023-02-12T00:15:23;28.50;;;13.25;;
71867;SDS011;59738;48.324;14.230;2023-02-12T00:17:51;28.83;;;13.27;;
71867;SDS011;59738;48.324;14.230;2023-02-12T00:20:18;27.77;;;13.67;;
71867;SDS011;59738;48.324;14.230;2023-02-12T00:22:47;27.08;;;13.35;;
71867;SDS011;59738;48.324;14.230;2023-02-12T00:25:17;31.50;;;14.30;;
71867;SDS011;59738;48.324;14.230;2023-02-12T00:27:45;27.42;;;14.35;;
71867;SDS011;59738;48.324;14.230;2023-02-12T00:30:12;22.92;;;12.52;;
71867;SDS011;59738;48.324;14.230;2023-02-12T00:32:40;27.17;;;13.47;;
71867;SDS011;59738;48.324;14.230;2023-02-12T00:35:08;29.42;;;14.25;;
71867;SDS011;59738;48.324;14.230;2023-02-12T00:37:36;26.40;;;13.65;;
71867;SDS011;59738;48.324;14.230;2023-02-12T00:40:05;30.83;;;14.52;;
71867;SDS011;59738;48.324;14.230;2023-02-12T00:42:35;30.40;;;13.90;;
71867;SDS011;59738;48.324;14.230;2023-02-12T00:45:04;27.60;;;13.00;;
71867;SDS011;59738;48.324;14.230;2023-02-12T00:47:32;28.98;;;12.82;;
71867;SDS011;59738;48.324;14.230;2023-02-12T00:50:00;29.10;;;14.65;;
71867;SDS011;59738;48.324;14.230;2023-02-12T00:52:28;31.50;;;14.80;;
71867;SDS011;59738;48.324;14.230;2023-02-12T00:54:55;32.50;;;14.82;;
71867;SDS011;59738;48.324;14.230;2023-02-12T00:57:25;35.97;;;16.10;;
71867;SDS011;59738;48.324;14.230;2023-02-12T00:59:52;37.10;;;14.80;;
71867;SDS011;59738;48.324;14.230;2023-02-12T01:02:20;35.63;;;15.63;;
71867;SDS011;59738;48.324;14.230;2023-02-12T01:04:47;33.30;;;16.33;;
71867;SDS011;59738;48.324;14.230;2023-02-12T01:07:15;36.45;;;15.98;;
71867;SDS011;59738;48.324;14.230;2023-02-12T01:09:43;30.57;;;15.10;;
71867;SDS011;59738;48.324;14.230;2023-02-12T01:12:10;35.53;;;15.15;;
71867;SDS011;59738;48.324;14.230;2023-02-12T01:14:39;33.40;;;16.23;;
71867;SDS011;59738;48.324;14.230;2023-02-12T01:17:07;27.55;;;12.75;;
71867;SDS011;59738;48.324;14.230;2023-02-12T01:19:35;34.75;;;15.25;;
71867;SDS011;59738;48.324;14.230;2023-02-12T01:22:03;37.57;;;15.93;;
71867;SDS011;59738;48.324;14.230;2023-02-12T01:24:30;27.35;;;14.50;;
71867;SDS011;59738;48.324;14.230;2023-02-12T01:26:58;30.20;;;13.93;;
71867;SDS011;59738;48.324;14.230;2023-02-12T01:29:26;32.65;;;14.80;;
71867;SDS011;59738;48.324;14.230;2023-02-12T01:31:55;29.98;;;14.48;;
71867;SDS011;59738;48.324;14.230;2023-02-12T01:34:23;31.50;;;15.47;;
71867;SDS011;59738;48.324;14.230;2023-02-12T01:36:51;32.92;;;15.25;;
71867;SDS011;59738;48.324;14.230;2023-02-12T01:39:22;32.28;;;15.40;;
71867;SDS011;59738;48.324;14.230;2023-02-12T01:41:50;31.23;;;13.40;;
71867;SDS011;59738;48.324;14.230;2023-02-12T01:44:18;30.42;;;14.90;;
71867;SDS011;59738;48.324;14.230;2023-02-12T01:46:47;35.87;;;14.93;;
71867;SDS011;59738;48.324;14.230;2023-02-12T01:49:19;33.38;;;15.38;;
71867;SDS011;59738;48.324;14.230;2023-02-12T01:51:49;36.63;;;16.33;;
71867;SDS011;59738;48.324;14.230;2023-02-12T01:54:18;35.05;;;16.10;;
71867;SDS011;59738;48.324;14.230;2023-02-12T01:56:46;35.90;;;16.67;;
71867;SDS011;59738;48.324;14.230;2023-02-12T01:59:14;39.33;;;16.53;;
71867;SDS011;59738;48.324;14.230;2023-02-12T02:01:42;33.05;;;15.75;;
71867;SDS011;59738;48.324;14.230;2023-02-12T02:04:11;41.33;;;17.50;;
71867;SDS011;59738;48.324;14.230;2023-02-12T02:06:45;25.58;;;11.65;;
71867;SDS011;59738;48.324;14.230;2023-02-12T02:09:14;43.20;;;17.00;;
71867;SDS011;59738;48.324;14.230;2023-02-12T02:11:42;38.43;;;15.83;;
71867;SDS011;59738;48.324;14.230;2023-02-12T02:14:28;38.55;;;18.67;;
71867;SDS011;59738;48.324;14.230;2023-02-12T02:17:24;38.42;;;17.10;;
71867;SDS011;59738;48.324;14.230;2023-02-12T02:22:50;38.75;;;15.82;;
71867;SDS011;59738;48.324;14.230;2023-02-12T02:25:35;37.87;;;16.57;;
71867;SDS011;59738;48.324;14.230;2023-02-12T02:28:30;46.25;;;17.20;;
71867;SDS011;59738;48.324;14.230;2023-02-12T02:31:02;42.75;;;17.08;;
71867;SDS011;59738;48.324;14.230;2023-02-12T02:33:36;39.88;;;17.45;;
71867;SDS011;59738;48.324;14.230;2023-02-12T02:36:10;40.10;;;17.58;;
71867;SDS011;59738;48.324;14.230;2023-02-12T02:38:42;40.97;;;16.77;;
71867;SDS011;59738;48.324;14.230;2023-02-12T02:41:14;42.55;;;18.52;;
71867;SDS011;59738;48.324;14.230;2023-02-12T02:43:45;37.58;;;16.02;;
71867;SDS011;59738;48.324;14.230;2023-02-12T02:46:17;39.08;;;17.35;;
71867;SDS011;59738;48.324;14.230;2023-02-12T02:48:49;38.85;;;17.58;;
71867;SDS011;59738;48.324;14.230;2023-02-12T02:51:19;35.33;;;17.00;;
71867;SDS011;59738;48.324;14.230;2023-02-12T02:53:50;38.80;;;18.92;;
71867;SDS011;59738;48.324;14.230;2023-02-12T02:56:20;39.97;;;16.73;;
71867;SDS011;59738;48.324;14.230;2023-02-12T02:58:50;39.35;;;17.20;;
71867;SDS011;59738;48.324;14.230;2023-02-12T03:01:23;47.55;;;17.83;;
71867;SDS011;59738;48.324;14.230;2023-02-12T03:03:55;41.13;;;17.90;;
71867;SDS011;59738;48.324;14.230;2023-02-12T03:06:28;38.15;;;18.00;;
71867;SDS011;59738;48.324;14.230;2023-02-12T03:08:59;42.42;;;17.80;;
71867;SDS011;59738;48.324;14.230;2023-02-12T03:11:29;37.97;;;16.65;;
71867;SDS011;59738;48.324;14.230;2023-02-12T03:13:58;36.47;;;16.38;;
71867;SDS011;59738;48.324;14.230;2023-02-12T03:16:31;36.37;;;16.90;;
71867;SDS011;59738;48.324;14.230;2023-02-12T03:19:01;34.58;;;17.48;;
71867;SDS011;59738;48.324;14.230;2023-02-12T03:21:33;36.10;;;16.83;;
71867;SDS011;59738;48.324;14.230;2023-02-12T03:24:06;37.53;;;17.70;;
71867;SDS011;59738;48.324;14.230;2023-02-12T03:26:40;42.78;;;18.80;;
71867;SDS011;59738;48.324;14.230;2023-02-12T03:29:10;42.83;;;17.30;;
71867;SDS011;59738;48.324;14.230;2023-02-12T03:31:43;43.80;;;19.17;;
71867;SDS011;59738;48.324;14.230;2023-02-12T03:34:16;45.30;;;20.00;;
71867;SDS011;59738;48.324;14.230;2023-02-12T03:36:50;41.15;;;17.50;;
71867;SDS011;59738;48.324;14.230;2023-02-12T03:39:24;45.80;;;19.02;;
71867;SDS011;59738;48.324;14.230;2023-02-12T03:41:57;38.27;;;19.10;;
71867;SDS011;59738;48.324;14.230;2023-02-12T03:44:32;42.00;;;19.77;;
71867;SDS011;59738;48.324;14.230;2023-02-12T03:47:17;43.67;;;19.92;;
71867;SDS011;59738;48.324;14.230;2023-02-12T03:49:56;39.78;;;19.08;;
71867;SDS011;59738;48.324;14.230;2023-02-12T03:52:27;39.97;;;17.90;;
71867;SDS011;59738;48.324;14.230;2023-02-12T03:54:55;36.30;;;17.53;;
71867;SDS011;59738;48.324;14.230;2023-02-12T03:57:23;45.10;;;19.75;;
71867;SDS011;59738;48.324;14.230;2023-02-12T03:59:55;47.65;;;18.48;;
71867;SDS011;59738;48.324;14.230;2023-02-12T04:02:25;44.83;;;20.63;;
71867;SDS011;59738;48.324;14.230;2023-02-12T04:04:52;44.85;;;19.50;;
71867;SDS011;59738;48.324;14.230;2023-02-12T04:07:20;39.60;;;17.83;;
71867;SDS011;59738;48.324;14.230;2023-02-12T04:09:48;35.33;;;15.65;;
71867;SDS011;59738;48.324;14.230;2023-02-12T04:12:20;45.63;;;20.38;;
71867;SDS011;59738;48.324;14.230;2023-02-12T04:15:05;44.17;;;19.27;;
71867;SDS011;59738;48.324;14.230;2023-02-12T04:17:46;41.63;;;19.05;;
71867;SDS011;59738;48.324;14.230;2023-02-12T04:20:20;38.97;;;17.57;;
71867;SDS011;59738;48.324;14.230;2023-02-12T04:22:54;38.78;;;18.75;;
71867;SDS011;59738;48.324;14.230;2023-02-12T04:25:31;43.83;;;19.85;;
71867;SDS011;59738;48.324;14.230;2023-02-12T04:28:09;41.55;;;18.13;;
71867;SDS011;59738;48.324;14.230;2023-02-12T04:30:41;37.20;;;18.30;;
71867;SDS011;59738;48.324;14.230;2023-02-12T04:33:13;33.20;;;16.80;;
71867;SDS011;59738;48.324;14.230;2023-02-12T04:35:46;46.63;;;17.70;;
71867;SDS011;59738;48.324;14.230;2023-02-12T04:38:16;39.90;;;16.63;;
71867;SDS011;59738;48.324;14.230;2023-02-12T04:40:47;40.42;;;17.52;;
71867;SDS011;59738;48.324;14.230;2023-02-12T04:43:25;43.50;;;18.73;;
71867;SDS011;59738;48.324;14.230;2023-02-12T04:45:54;40.37;;;18.60;;
71867;SDS011;59738;48.324;14.230;2023-02-12T04:48:23;39.35;;;17.52;;
71867;SDS011;59738;48.324;14.230;2023-02-12T04:50:50;39.15;;;16.52;;
71867;SDS011;59738;48.324;14.230;2023-02-12T04:53:18;42.78;;;18.50;;
71867;SDS011;59738;48.324;14.230;2023-02-12T04:55:46;39.90;;;16.77;;
71867;SDS011;59738;48.324;14.230;2023-02-12T04:58:16;39.90;;;17.23;;
71867;SDS011;59738;48.324;14.230;2023-02-12T05:00:43;39.10;;;18.08;;
71867;SDS011;59738;48.324;14.230;2023-02-12T05:03:11;36.83;;;16.65;;
71867;SDS011;59738;48.324;14.230;2023-02-12T05:05:40;37.72;;;17.27;;
71867;SDS011;59738;48.324;14.230;2023-02-12T05:08:08;40.38;;;16.83;;
71867;SDS011;59738;48.324;14.230;2023-02-12T05:10:35;35.83;;;14.80;;
71867;SDS011;59738;48.324;14.230;2023-02-12T05:13:03;36.10;;;16.02;;
71867;SDS011;59738;48.324;14.230;2023-02-12T05:15:30;33.85;;;15.88;;
71867;SDS011;59738;48.324;14.230;2023-02-12T05:17:58;31.58;;;13.98;;
71867;SDS011;59738;48.324;14.230;2023-02-12T05:20:26;34.08;;;16.10;;
71867;SDS011;59738;48.324;14.230;2023-02-12T05:22:55;32.47;;;16.13;;
71867;SDS011;59738;48.324;14.230;2023-02-12T05:25:22;35.88;;;16.63;;
71867;SDS011;59738;48.324;14.230;2023-02-12T05:27:50;30.25;;;15.30;;
71867;SDS011;59738;48.324;14.230;2023-02-12T05:30:17;29.02;;;13.52;;
71867;SDS011;59738;48.324;14.230;2023-02-12T05:32:45;34.35;;;14.35;;
71867;SDS011;59738;48.324;14.230;2023-02-12T05:35:13;36.93;;;15.10;;
71867;SDS011;59738;48.324;14.230;2023-02-12T05:37:41;32.03;;;13.80;;
71867;SDS011;59738;48.324;14.230;2023-02-12T05:40:10;25.85;;;12.95;;
71867;SDS011;59738;48.324;14.230;2023-02-12T05:42:38;30.85;;;14.65;;
71867;SDS011;59738;48.324;14.230;2023-02-12T05:45:06;29.65;;;15.48;;
71867;SDS011;59738;48.324;14.230;2023-02-12T05:47:34;31.97;;;14.43;;
71867;SDS011;59738;48.324;14.230;2023-02-12T05:50:02;32.20;;;14.45;;
71867;SDS011;59738;48.324;14.230;2023-02-12T05:52:30;28.00;;;14.57;;
71867;SDS011;59738;48.324;14.230;2023-02-12T05:54:57;36.15;;;15.70;;
71867;SDS011;59738;48.324;14.230;2023-02-12T05:57:26;31.70;;;14.70;;
71867;SDS011;59738;48.324;14.230;2023-02-12T05:59:54;32.90;;;14.53;;
71867;SDS011;59738;48.324;14.230;2023-02-12T06:02:22;31.70;;;13.73;;
71867;SDS011;59738;48.324;14.230;2023-02-12T06:04:49;32.38;;;15.65;;
71867;SDS011;59738;48.324;14.230;2023-02-12T06:07:17;38.00;;;16.73;;
71867;SDS011;59738;48.324;14.230;2023-02-12T06:09:44;32.10;;;14.93;;
71867;SDS011;59738;48.324;14.230;2023-02-12T06:12:12;35.37;;;15.43;;
71867;SDS011;59738;48.324;14.230;2023-02-12T06:14:41;31.90;;;14.55;;
71867;SDS011;59738;48.324;14.230;2023-02-12T06:17:09;38.85;;;15.00;;
71867;SDS011;59738;48.324;14.230;2023-02-12T06:19:36;31.88;;;13.93;;
71867;SDS011;59738;48.324;14.230;2023-02-12T06:22:04;34.25;;;15.73;;
71867;SDS011;59738;48.324;14.230;2023-02-12T06:24:32;40.40;;;16.90;;
71867;SDS011;59738;48.324;14.230;2023-02-12T06:26:59;34.65;;;15.43;;
71867;SDS011;59738;48.324;14.230;2023-02-12T06:29:27;37.08;;;16.02;;
71867;SDS011;59738;48.324;14.230;2023-02-12T06:31:56;32.08;;;13.27;;
71867;SDS011;59738;48.324;14.230;2023-02-12T06:34:24;34.15;;;15.23;;
71867;SDS011;59738;48.324;14.230;2023-02-12T06:36:52;30.30;;;12.10;;
71867;SDS011;59738;48.324;14.230;2023-02-12T06:39:19;30.90;;;14.70;;
71867;SDS011;59738;48.324;14.230;2023-02-12T06:41:47;38.17;;;16.05;;
71867;SDS011;59738;48.324;14.230;2023-02-12T06:44:15;36.00;;;16.05;;
71867;SDS011;59738;48.324;14.230;2023-02-12T06:46:43;31.38;;;14.57;;
71867;SDS011;59738;48.324;14.230;2023-02-12T06:49:12;32.23;;;16.73;;
71867;SDS011;59738;48.324;14.230;2023-02-12T06:51:41;32.65;;;15.00;;
71867;SDS011;59738;48.324;14.230;2023-02-12T06:54:12;36.90;;;16.85;;
71867;SDS011;59738;48.324;14.230;2023-02-12T06:56:41;31.85;;;15.73;;
71867;SDS011;59738;48.324;14.230;2023-02-12T06:59:11;44.35;;;18.35;;
71867;SDS011;59738;48.324;14.230;2023-02-12T07:01:40;36.60;;;14.93;;
71867;SDS011;59738;48.324;14.230;2023-02-12T07:04:08;39.50;;;17.92;;
71867;SDS011;59738;48.324;14.230;2023-02-12T07:06:38;41.03;;;17.42;;
71867;SDS011;59738;48.324;14.230;2023-02-12T07:09:06;37.97;;;17.17;;
71867;SDS011;59738;48.324;14.230;2023-02-12T07:11:34;40.00;;;17.83;;
71867;SDS011;59738;48.324;14.230;2023-02-12T07:14:02;27.83;;;13.33;;
71867;SDS011;59738;48.324;14.230;2023-02-12T07:16:30;37.90;;;16.08;;
71867;SDS011;59738;48.324;14.230;2023-02-12T07:18:58;38.47;;;16.10;;
71867;SDS011;59738;48.324;14.230;2023-02-12T07:21:26;43.92;;;17.58;;
71867;SDS011;59738;48.324;14.230;2023-02-12T07:23:55;36.58;;;17.50;;
71867;SDS011;59738;48.324;14.230;2023-02-12T07:26:22;33.97;;;15.83;;
71867;SDS011;59738;48.324;14.230;2023-02-12T07:28:51;45.75;;;19.20;;
71867;SDS011;59738;48.324;14.230;2023-02-12T07:31:19;39.67;;;17.77;;
71867;SDS011;59738;48.324;14.230;2023-02-12T07:33:47;44.58;;;19.10;;
71867;SDS011;59738;48.324;14.230;2023-02-12T07:36:21;41.58;;;17.73;;
71867;SDS011;59738;48.324;14.230;2023-02-12T07:38:49;51.67;;;19.90;;
71867;SDS011;59738;48.324;14.230;2023-02-12T07:41:19;40.55;;;18.38;;
71867;SDS011;59738;48.324;14.230;2023-02-12T07:43:51;41.03;;;17.35;;
71867;SDS011;59738;48.324;14.230;2023-02-12T07:46:20;37.60;;;17.10;;
71867;SDS011;59738;48.324;14.230;2023-02-12T07:48:51;46.40;;;16.38;;
71867;SDS011;59738;48.324;14.230;2023-02-12T07:51:19;43.53;;;17.50;;
71867;SDS011;59738;48.324;14.230;2023-02-12T07:53:47;50.33;;;19.83;;
71867;SDS011;59738;48.324;14.230;2023-02-12T07:56:16;49.15;;;19.48;;
71867;SDS011;59738;48.324;14.230;2023-02-12T07:58:46;47.25;;;18.40;;
71867;SDS011;59738;48.324;14.230;2023-02-12T08:01:15;31.95;;;13.48;;
71867;SDS011;59738;48.324;14.230;2023-02-12T08:03:45;40.17;;;15.37;;
71867;SDS011;59738;48.324;14.230;2023-02-12T08:06:14;46.50;;;19.30;;
71867;SDS011;59738;48.324;14.230;2023-02-12T08:08:43;41.63;;;18.30;;
71867;SDS011;59738;48.324;14.230;2023-02-12T08:11:11;50.80;;;20.20;;
71867;SDS011;59738;48.324;14.230;2023-02-12T08:13:40;44.72;;;18.50;;
71867;SDS011;59738;48.324;14.230;2023-02-12T08:16:10;47.93;;;18.50;;
71867;SDS011;59738;48.324;14.230;2023-02-12T08:18:39;39.45;;;16.35;;
71867;SDS011;59738;48.324;14.230;2023-02-12T08:21:08;39.17;;;18.27;;
71867;SDS011;59738;48.324;14.230;2023-02-12T08:23:37;42.78;;;17.50;;
71867;SDS011;59738;48.324;14.230;2023-02-12T08:26:06;54.90;;;19.60;;
71867;SDS011;59738;48.324;14.230;2023-02-12T08:28:37;50.90;;;20.70;;
71867;SDS011;59738;48.324;14.230;2023-02-12T08:31:07;49.97;;;19.40;;
71867;SDS011;59738;48.324;14.230;2023-02-12T08:33:38;46.13;;;20.45;;
71867;SDS011;59738;48.324;14.230;2023-02-12T08:36:06;44.67;;;18.30;;
71867;SDS011;59738;48.324;14.230;2023-02-12T08:38:36;51.20;;;19.77;;
71867;SDS011;59738;48.324;14.230;2023-02-12T08:41:05;40.80;;;16.80;;
71867;SDS011;59738;48.324;14.230;2023-02-12T08:43:34;39.63;;;17.75;;
71867;SDS011;59738;48.324;14.230;2023-02-12T08:46:02;43.30;;;17.38;;
71867;SDS011;59738;48.324;14.230;2023-02-12T08:48:32;44.42;;;17.63;;
71867;SDS011;59738;48.324;14.230;2023-02-12T08:51:03;42.55;;;17.15;;
71867;SDS011;59738;48.324;14.230;2023-02-12T08:53:32;48.13;;;20.43;;
71867;SDS011;59738;48.324;14.230;2023-02-12T08:56:00;47.45;;;18.58;;
71867;SDS011;59738;48.324;14.230;2023-02-12T08:58:28;49.53;;;19.73;;
71867;SDS011;59738;48.324;14.230;2023-02-12T09:00:56;44.90;;;18.58;;
71867;SDS011;59738;48.324;14.230;2023-02-12T09:03:24;46.70;;;19.20;;
71867;SDS011;59738;48.324;14.230;2023-02-12T09:05:53;48.33;;;20.47;;
71867;SDS011;59738;48.324;14.230;2023-02-12T09:08:21;50.00;;;18.88;;
71867;SDS011;59738;48.324;14.230;2023-02-12T09:10:49;47.28;;;20.77;;
71867;SDS011;59738;48.324;14.230;2023-02-12T09:13:16;49.58;;;19.73;;
71867;SDS011;59738;48.324;14.230;2023-02-12T09:15:44;44.20;;;17.65;;
71867;SDS011;59738;48.324;14.230;2023-02-12T09:18:12;41.70;;;18.23;;
71867;SDS011;59738;48.324;14.230;2023-02-12T09:20:41;50.75;;;18.48;;
71867;SDS011;59738;48.324;14.230;2023-02-12T09:23:12;48.08;;;18.92;;
71867;SDS011;59738;48.324;14.230;2023-02-12T09:25:41;43.60;;;20.10;;
71867;SDS011;59738;48.324;14.230;2023-02-12T09:28:09;52.38;;;20.38;;
71867;SDS011;59738;48.324;14.230;2023-02-12T09:30:39;50.40;;;19.73;;
71867;SDS011;59738;48.324;14.230;2023-02-12T09:33:08;50.70;;;20.05;;
71867;SDS011;59738;48.324;14.230;2023-02-12T09:35:36;46.58;;;19.77;;
71867;SDS011;59738;48.324;14.230;2023-02-12T09:38:04;46.22;;;18.90;;
71867;SDS011;59738;48.324;14.230;2023-02-12T09:40:35;52.13;;;20.77;;
71867;SDS011;59738;48.324;14.230;2023-02-12T09:43:10;48.73;;;19.80;;
71867;SDS011;59738;48.324;14.230;2023-02-12T09:45:44;56.15;;;21.27;;
71867;SDS011;59738;48.324;14.230;2023-02-12T09:48:21;51.95;;;20.25;;
71867;SDS011;59738;48.324;14.230;2023-02-12T09:51:02;46.13;;;19.50;;
71867;SDS011;59738;48.324;14.230;2023-02-12T09:53:34;48.13;;;19.15;;
71867;SDS011;59738;48.324;14.230;2023-02-12T09:56:07;49.60;;;19.60;;
71867;SDS011;59738;48.324;14.230;2023-02-12T09:58:39;44.53;;;17.70;;
71867;SDS011;59738;48.324;14.230;2023-02-12T10:01:09;45.80;;;18.50;;
71867;SDS011;59738;48.324;14.230;2023-02-12T10:03:38;49.45;;;19.05;;
71867;SDS011;59738;48.324;14.230;2023-02-12T10:06:06;43.53;;;18.05;;
71867;SDS011;59738;48.324;14.230;2023-02-12T10:08:44;44.37;;;18.07;;
71867;SDS011;59738;48.324;14.230;2023-02-12T10:14:10;46.40;;;19.10;;
71867;SDS011;59738;48.324;14.230;2023-02-12T10:16:47;36.67;;;17.20;;
71867;SDS011;59738;48.324;14.230;2023-02-12T10:19:22;49.55;;;18.73;;
71867;SDS011;59738;48.324;14.230;2023-02-12T10:21:58;44.70;;;18.73;;
71867;SDS011;59738;48.324;14.230;2023-02-12T10:24:39;47.20;;;18.00;;
71867;SDS011;59738;48.324;14.230;2023-02-12T10:27:16;48.30;;;19.30;;
71867;SDS011;59738;48.324;14.230;2023-02-12T10:29:46;52.28;;;19.02;;
71867;SDS011;59738;48.324;14.230;2023-02-12T10:32:18;45.63;;;17.67;;
71867;SDS011;59738;48.324;14.230;2023-02-12T10:34:51;45.97;;;18.33;;
71867;SDS011;59738;48.324;14.230;2023-02-12T10:37:21;43.40;;;17.92;;
71867;SDS011;59738;48.324;14.230;2023-02-12T10:39:55;42.35;;;17.50;;
71867;SDS011;59738;48.324;14.230;2023-02-12T10:42:32;48.90;;;19.35;;
71867;SDS011;59738;48.324;14.230;2023-02-12T10:45:04;44.97;;;18.13;;
71867;SDS011;59738;48.324;14.230;2023-02-12T10:47:33;48.30;;;19.63;;
71867;SDS011;59738;48.324;14.230;2023-02-12T10:50:01;48.17;;;18.75;;
71867;SDS011;59738;48.324;14.230;2023-02-12T10:52:33;44.30;;;17.83;;
71867;SDS011;59738;48.324;14.230;2023-02-12T10:55:03;46.42;;;17.75;;
71867;SDS011;59738;48.324;14.230;2023-02-12T10:57:51;46.40;;;18.30;;
71867;SDS011;59738;48.324;14.230;2023-02-12T11:00:23;46.93;;;18.60;;
71867;SDS011;59738;48.324;14.230;2023-02-12T11:03:04;46.63;;;18.40;;
71867;SDS011;59738;48.324;14.230;2023-02-12T11:05:35;42.38;;;18.02;;
71867;SDS011;59738;48.324;14.230;2023-02-12T11:08:03;44.35;;;18.08;;
71867;SDS011;59738;48.324;14.230;2023-02-12T11:10:32;42.08;;;17.75;;
71867;SDS011;59738;48.324;14.230;2023-02-12T11:13:05;51.77;;;19.13;;
71867;SDS011;59738;48.324;14.230;2023-02-12T11:15:34;47.97;;;18.88;;
71867;SDS011;59738;48.324;14.230;2023-02-12T11:18:04;46.35;;;20.10;;
71867;SDS011;59738;48.324;14.230;2023-02-12T11:20:35;48.10;;;18.33;;
71867;SDS011;59738;48.324;14.230;2023-02-12T11:23:04;53.20;;;20.38;;
71867;SDS011;59738;48.324;14.230;2023-02-12T11:25:34;46.33;;;19.40;;
71867;SDS011;59738;48.324;14.230;2023-02-12T11:28:05;43.35;;;17.92;;
71867;SDS011;59738;48.324;14.230;2023-02-12T11:30:50;47.45;;;18.23;;
71867;SDS011;59738;48.324;14.230;2023-02-12T11:33:30;40.30;;;17.48;;
71867;SDS011;59738;48.324;14.230;2023-02-12T11:36:00;46.40;;;18.52;;
71867;SDS011;59738;48.324;14.230;2023-02-12T11:38:31;37.37;;;16.97;;
71867;SDS011;59738;48.324;14.230;2023-02-12T11:41:08;50.30;;;18.80;;
71867;SDS011;59738;48.324;14.230;2023-02-12T11:43:50;45.08;;;18.17;;
71867;SDS011;59738;48.324;14.230;2023-02-12T11:46:18;40.42;;;16.88;;
71867;SDS011;59738;48.324;14.230;2023-02-12T11:48:46;42.63;;;18.10;;
71867;SDS011;59738;48.324;14.230;2023-02-12T11:51:17;37.93;;;16.40;;
71867;SDS011;59738;48.324;14.230;2023-02-12T11:53:46;43.53;;;17.73;;
71867;SDS011;59738;48.324;14.230;2023-02-12T11:56:15;43.05;;;16.20;;
71867;SDS011;59738;48.324;14.230;2023-02-12T11:58:45;43.97;;;17.90;;
71867;SDS011;59738;48.324;14.230;2023-02-12T12:01:15;41.92;;;18.50;;
71867;SDS011;59738;48.324;14.230;2023-02-12T12:03:52;40.07;;;17.20;;
71867;SDS011;59738;48.324;14.230;2023-02-12T12:06:26;44.17;;;17.98;;
71867;SDS011;59738;48.324;14.230;2023-02-12T12:09:00;47.25;;;18.65;;
71867;SDS011;59738;48.324;14.230;2023-02-12T12:11:33;35.33;;;16.50;;
71867;SDS011;59738;48.324;14.230;2023-02-12T12:14:07;42.13;;;18.50;;
71867;SDS011;59738;48.324;14.230;2023-02-12T12:16:40;43.33;;;18.13;;
71867;SDS011;59738;48.324;14.230;2023-02-12T12:19:31;42.42;;;17.73;;
71867;SDS011;59738;48.324;14.230;2023-02-12T12:22:22;37.67;;;16.52;;
71867;SDS011;59738;48.324;14.230;2023-02-12T12:24:56;43.80;;;17.10;;
71867;SDS011;59738;48.324;14.230;2023-02-12T12:27:32;37.58;;;16.67;;
71867;SDS011;59738;48.324;14.230;2023-02-12T12:30:21;37.03;;;16.63;;
71867;SDS011;59738;48.324;14.230;2023-02-12T12:32:52;41.17;;;17.80;;
71867;SDS011;59738;48.324;14.230;2023-02-12T12:35:24;45.53;;;16.88;;
71867;SDS011;59738;48.324;14.230;2023-02-12T12:38:00;45.05;;;18.17;;
71867;SDS011;59738;48.324;14.230;2023-02-12T12:40:35;39.05;;;16.45;;
71867;SDS011;59738;48.324;14.230;2023-02-12T12:43:13;43.30;;;19.47;;
71867;SDS011;59738;48.324;14.230;2023-02-12T12:45:53;40.47;;;17.10;;
71867;SDS011;59738;48.324;14.230;2023-02-12T12:48:32;42.13;;;16.60;;
71867;SDS011;59738;48.324;14.230;2023-02-12T12:51:10;42.50;;;17.58;;
71867;SDS011;59738;48.324;14.230;2023-02-12T12:53:48;41.67;;;17.35;;
71867;SDS011;59738;48.324;14.230;2023-02-12T12:56:26;39.23;;;17.27;;
71867;SDS011;59738;48.324;14.230;2023-02-12T12:59:04;42.15;;;17.10;;
71867;SDS011;59738;48.324;14.230;2023-02-12T13:01:49;37.75;;;17.33;;
71867;SDS011;59738;48.324;14.230;2023-02-12T13:04:33;37.38;;;17.10;;
71867;SDS011;59738;48.324;14.230;2023-02-12T13:07:12;37.53;;;17.00;;
71867;SDS011;59738;48.324;14.230;2023-02-12T13:09:47;37.10;;;15.40;;
71867;SDS011;59738;48.324;14.230;2023-02-12T13:12:31;37.90;;;16.25;;
71867;SDS011;59738;48.324;14.230;2023-02-12T13:15:05;38.60;;;16.27;;
71867;SDS011;59738;48.324;14.230;2023-02-12T13:17:40;34.97;;;16.45;;
71867;SDS011;59738;48.324;14.230;2023-02-12T13:20:14;31.77;;;13.48;;
71867;SDS011;59738;48.324;14.230;2023-02-12T13:22:46;35.20;;;15.33;;
71867;SDS011;59738;48.324;14.230;2023-02-12T13:25:21;38.92;;;17.23;;
71867;SDS011;59738;48.324;14.230;2023-02-12T13:27:51;37.13;;;16.35;;
71867;SDS011;59738;48.324;14.230;2023-02-12T13:30:21;37.15;;;16.80;;
71867;SDS011;59738;48.324;14.230;2023-02-12T13:32:53;41.55;;;16.02;;
71867;SDS011;59738;48.324;14.230;2023-02-12T13:35:28;37.37;;;17.33;;
71867;SDS011;59738;48.324;14.230;2023-02-12T13:37:56;37.60;;;16.30;;
71867;SDS011;59738;48.324;14.230;2023-02-12T13:40:26;38.22;;;17.05;;
71867;SDS011;59738;48.324;14.230;2023-02-12T13:42:55;37.22;;;16.88;;
71867;SDS011;59738;48.324;14.230;2023-02-12T13:45:31;39.80;;;17.17;;
71867;SDS011;59738;48.324;14.230;2023-02-12T13:48:22;34.23;;;15.70;;
71867;SDS011;59738;48.324;14.230;2023-02-12T13:50:56;36.58;;;16.48;;
71867;SDS011;59738;48.324;14.230;2023-02-12T13:53:32;37.45;;;17.10;;
71867;SDS011;59738;48.324;14.230;2023-02-12T13:56:06;37.45;;;15.38;;
71867;SDS011;59738;48.324;14.230;2023-02-12T13:58:38;35.88;;;15.93;;
71867;SDS011;59738;48.324;14.230;2023-02-12T14:01:11;38.63;;;16.50;;
71867;SDS011;59738;48.324;14.230;2023-02-12T14:03:40;36.85;;;15.32;;
71867;SDS011;59738;48.324;14.230;2023-02-12T14:06:13;34.83;;;15.15;;
71867;SDS011;59738;48.324;14.230;2023-02-12T14:08:42;39.70;;;16.23;;
71867;SDS011;59738;48.324;14.230;2023-02-12T14:11:12;36.55;;;15.88;;
71867;SDS011;59738;48.324;14.230;2023-02-12T14:13:46;35.77;;;16.63;;
71867;SDS011;59738;48.324;14.230;2023-02-12T14:16:18;38.90;;;15.90;;
71867;SDS011;59738;48.324;14.230;2023-02-12T14:22:13;32.72;;;14.45;;
71867;SDS011;59738;48.324;14.230;2023-02-12T14:24:48;34.50;;;14.75;;
71867;SDS011;59738;48.324;14.230;2023-02-12T14:27:20;32.37;;;14.10;;
71867;SDS011;59738;48.324;14.230;2023-02-12T14:30:20;34.50;;;14.80;;
71867;SDS011;59738;48.324;14.230;2023-02-12T14:32:56;34.47;;;14.13;;
71867;SDS011;59738;48.324;14.230;2023-02-12T14:35:39;35.38;;;15.07;;
71867;SDS011;59738;48.324;14.230;2023-02-12T14:41:26;34.80;;;15.17;;
71867;SDS011;59738;48.324;14.230;2023-02-12T14:47:11;36.13;;;15.15;;